Open Full Screen Window  High Contrast Mode
Wind Gusting 00 knots
05
July 29, 2014 4:52 PM EDT
Weather Information
Wind Direction
  250 °
Wind Speed
  05 kt (6 mph)
Wind Gust
  00 kt (0 mph)
Altimeter
30.01 in
Visibility
10 SM
Temperature
20° C
68° F
Dewpoint
09° C
48° F
Humidity
49%
1hr Rain Fall
00.00 in.
24hr Rain Fall
00.00 in.
Sky Condition
Scattered @ 7,000 ft
Scattered @ 4,500 ft
VFR

METAR KPOV 292052Z AUTO 25005KT 10SM SCT045 SCT070 20/09 A3001 RMK AO2 T02010088

*Background is not an actual portrayal of the airport.